sensor_id;sensor_type;location;lat;lon;timestamp;temperature;humidity
35970;DHT22;22448;51.298;6.430;2023-05-16T00:00:39;9.70;99.90
35970;DHT22;22448;51.298;6.430;2023-05-16T00:03:06;9.70;99.90
35970;DHT22;22448;51.298;6.430;2023-05-16T00:05:33;9.70;99.90
35970;DHT22;22448;51.298;6.430;2023-05-16T00:08:00;9.60;99.90
35970;DHT22;22448;51.298;6.430;2023-05-16T00:10:27;9.60;99.90
35970;DHT22;22448;51.298;6.430;2023-05-16T00:12:54;9.60;99.90
35970;DHT22;22448;51.298;6.430;2023-05-16T00:15:22;9.60;99.90
35970;DHT22;22448;51.298;6.430;2023-05-16T00:17:50;9.60;99.90
35970;DHT22;22448;51.298;6.430;2023-05-16T00:20:17;9.60;99.90
35970;DHT22;22448;51.298;6.430;2023-05-16T00:22:48;9.70;99.90
35970;DHT22;22448;51.298;6.430;2023-05-16T00:25:15;9.70;99.90
35970;DHT22;22448;51.298;6.430;2023-05-16T00:27:42;9.60;99.90
35970;DHT22;22448;51.298;6.430;2023-05-16T00:30:09;9.60;99.90
35970;DHT22;22448;51.298;6.430;2023-05-16T00:32:37;9.60;99.90
35970;DHT22;22448;51.298;6.430;2023-05-16T00:35:06;9.50;99.90
35970;DHT22;22448;51.298;6.430;2023-05-16T00:37:33;9.50;99.90
35970;DHT22;22448;51.298;6.430;2023-05-16T00:40:01;9.50;99.90
35970;DHT22;22448;51.298;6.430;2023-05-16T00:42:28;9.50;99.90
35970;DHT22;22448;51.298;6.430;2023-05-16T00:44:56;9.50;99.90
35970;DHT22;22448;51.298;6.430;2023-05-16T00:47:23;9.50;99.90
35970;DHT22;22448;51.298;6.430;2023-05-16T00:49:50;9.40;99.90
35970;DHT22;22448;51.298;6.430;2023-05-16T00:52:18;9.40;99.90
35970;DHT22;22448;51.298;6.430;2023-05-16T00:54:45;9.30;99.90
35970;DHT22;22448;51.298;6.430;2023-05-16T00:57:13;9.30;99.90
35970;DHT22;22448;51.298;6.430;2023-05-16T00:59:44;9.30;99.90
35970;DHT22;22448;51.298;6.430;2023-05-16T01:02:12;9.20;99.90
35970;DHT22;22448;51.298;6.430;2023-05-16T01:04:40;9.20;99.90
35970;DHT22;22448;51.298;6.430;2023-05-16T01:07:08;9.20;99.90
35970;DHT22;22448;51.298;6.430;2023-05-16T01:09:35;9.20;99.90
35970;DHT22;22448;51.298;6.430;2023-05-16T01:15:14;9.20;99.90
35970;DHT22;22448;51.298;6.430;2023-05-16T01:20:52;9.20;99.90
35970;DHT22;22448;51.298;6.430;2023-05-16T01:23:40;9.20;99.90
35970;DHT22;22448;51.298;6.430;2023-05-16T01:26:21;9.20;99.90
35970;DHT22;22448;51.298;6.430;2023-05-16T01:28:50;9.20;99.90
35970;DHT22;22448;51.298;6.430;2023-05-16T01:31:18;9.20;99.90
35970;DHT22;22448;51.298;6.430;2023-05-16T01:33:45;9.10;99.90
35970;DHT22;22448;51.298;6.430;2023-05-16T01:36:37;9.10;99.90
35970;DHT22;22448;51.298;6.430;2023-05-16T01:39:43;9.10;99.90
35970;DHT22;22448;51.298;6.430;2023-05-16T01:42:15;9.20;99.90
35970;DHT22;22448;51.298;6.430;2023-05-16T01:47:30;9.20;99.90
35970;DHT22;22448;51.298;6.430;2023-05-16T01:50:15;9.20;99.90
35970;DHT22;22448;51.298;6.430;2023-05-16T01:52:57;9.10;99.90
35970;DHT22;22448;51.298;6.430;2023-05-16T01:55:46;9.10;99.90
35970;DHT22;22448;51.298;6.430;2023-05-16T01:58:15;9.10;99.90
35970;DHT22;22448;51.298;6.430;2023-05-16T02:00:43;9.10;99.90
35970;DHT22;22448;51.298;6.430;2023-05-16T02:03:10;9.10;99.90
35970;DHT22;22448;51.298;6.430;2023-05-16T02:05:38;9.00;99.90
35970;DHT22;22448;51.298;6.430;2023-05-16T02:08:07;9.00;99.90
35970;DHT22;22448;51.298;6.430;2023-05-16T02:10:35;9.00;99.90
35970;DHT22;22448;51.298;6.430;2023-05-16T02:13:02;9.00;99.90
35970;DHT22;22448;51.298;6.430;2023-05-16T02:15:29;9.00;99.90
35970;DHT22;22448;51.298;6.430;2023-05-16T02:17:56;9.00;99.90
35970;DHT22;22448;51.298;6.430;2023-05-16T02:20:24;9.00;99.90
35970;DHT22;22448;51.298;6.430;2023-05-16T02:22:51;9.00;99.90
35970;DHT22;22448;51.298;6.430;2023-05-16T02:25:18;8.90;99.90
35970;DHT22;22448;51.298;6.430;2023-05-16T02:27:45;8.90;99.90
35970;DHT22;22448;51.298;6.430;2023-05-16T02:30:12;8.80;99.90
35970;DHT22;22448;51.298;6.430;2023-05-16T02:32:40;8.80;99.90
35970;DHT22;22448;51.298;6.430;2023-05-16T02:35:07;8.70;99.90
35970;DHT22;22448;51.298;6.430;2023-05-16T02:37:34;8.70;99.90
35970;DHT22;22448;51.298;6.430;2023-05-16T02:40:02;8.70;99.90
35970;DHT22;22448;51.298;6.430;2023-05-16T02:42:31;8.60;99.90
35970;DHT22;22448;51.298;6.430;2023-05-16T02:44:58;8.60;99.90
35970;DHT22;22448;51.298;6.430;2023-05-16T02:47:26;8.50;99.90
35970;DHT22;22448;51.298;6.430;2023-05-16T02:49:53;8.50;99.90
35970;DHT22;22448;51.298;6.430;2023-05-16T02:52:20;8.40;99.90
35970;DHT22;22448;51.298;6.430;2023-05-16T02:54:47;8.30;99.90
35970;DHT22;22448;51.298;6.430;2023-05-16T02:57:34;8.30;99.90
35970;DHT22;22448;51.298;6.430;2023-05-16T03:00:01;8.20;99.90
35970;DHT22;22448;51.298;6.430;2023-05-16T03:02:28;8.10;99.90
35970;DHT22;22448;51.298;6.430;2023-05-16T03:04:55;8.10;99.90
35970;DHT22;22448;51.298;6.430;2023-05-16T03:07:22;8.00;99.90
35970;DHT22;22448;51.298;6.430;2023-05-16T03:09:49;8.00;99.90
35970;DHT22;22448;51.298;6.430;2023-05-16T03:12:17;7.90;99.90
35970;DHT22;22448;51.298;6.430;2023-05-16T03:14:44;7.90;99.90
35970;DHT22;22448;51.298;6.430;2023-05-16T03:17:11;7.90;99.90
35970;DHT22;22448;51.298;6.430;2023-05-16T03:19:38;7.80;99.90
35970;DHT22;22448;51.298;6.430;2023-05-16T03:22:05;7.80;99.90
35970;DHT22;22448;51.298;6.430;2023-05-16T03:24:32;7.70;99.90
35970;DHT22;22448;51.298;6.430;2023-05-16T03:26:59;7.70;99.90
35970;DHT22;22448;51.298;6.430;2023-05-16T03:29:26;7.60;99.90
35970;DHT22;22448;51.298;6.430;2023-05-16T03:31:53;7.60;99.90
35970;DHT22;22448;51.298;6.430;2023-05-16T03:34:20;7.60;99.90
35970;DHT22;22448;51.298;6.430;2023-05-16T03:36:48;7.50;99.90
35970;DHT22;22448;51.298;6.430;2023-05-16T03:39:16;7.50;99.90
35970;DHT22;22448;51.298;6.430;2023-05-16T03:41:43;7.50;99.90
35970;DHT22;22448;51.298;6.430;2023-05-16T03:44:10;7.50;99.90
35970;DHT22;22448;51.298;6.430;2023-05-16T03:46:37;7.40;99.90
35970;DHT22;22448;51.298;6.430;2023-05-16T03:49:04;7.40;99.90
35970;DHT22;22448;51.298;6.430;2023-05-16T03:51:32;7.40;99.90
35970;DHT22;22448;51.298;6.430;2023-05-16T03:53:59;7.40;99.90
35970;DHT22;22448;51.298;6.430;2023-05-16T03:56:26;7.40;99.90
35970;DHT22;22448;51.298;6.430;2023-05-16T03:58:53;7.40;99.90
35970;DHT22;22448;51.298;6.430;2023-05-16T04:01:20;7.40;99.90
35970;DHT22;22448;51.298;6.430;2023-05-16T04:03:47;7.40;99.90
35970;DHT22;22448;51.298;6.430;2023-05-16T04:06:14;7.40;99.90
35970;DHT22;22448;51.298;6.430;2023-05-16T04:08:41;7.40;99.90
35970;DHT22;22448;51.298;6.430;2023-05-16T04:11:10;7.30;99.90
35970;DHT22;22448;51.298;6.430;2023-05-16T04:13:37;7.30;99.90
35970;DHT22;22448;51.298;6.430;2023-05-16T04:16:05;7.30;99.90
35970;DHT22;22448;51.298;6.430;2023-05-16T04:18:32;7.40;99.90
35970;DHT22;22448;51.298;6.430;2023-05-16T04:21:00;7.40;99.90
35970;DHT22;22448;51.298;6.430;2023-05-16T04:23:27;7.40;99.90
35970;DHT22;22448;51.298;6.430;2023-05-16T04:25:54;7.40;99.90
35970;DHT22;22448;51.298;6.430;2023-05-16T04:28:22;7.40;99.90
35970;DHT22;22448;51.298;6.430;2023-05-16T04:30:49;7.40;99.90
35970;DHT22;22448;51.298;6.430;2023-05-16T04:33:17;7.50;99.90
35970;DHT22;22448;51.298;6.430;2023-05-16T04:35:44;7.50;99.90
35970;DHT22;22448;51.298;6.430;2023-05-16T04:38:11;7.60;99.90
35970;DHT22;22448;51.298;6.430;2023-05-16T04:40:38;7.60;99.90
35970;DHT22;22448;51.298;6.430;2023-05-16T04:43:07;7.60;99.90
35970;DHT22;22448;51.298;6.430;2023-05-16T04:45:34;7.70;99.90
35970;DHT22;22448;51.298;6.430;2023-05-16T04:48:03;7.80;99.90
35970;DHT22;22448;51.298;6.430;2023-05-16T04:50:30;7.90;99.90
35970;DHT22;22448;51.298;6.430;2023-05-16T04:52:57;7.90;99.90
35970;DHT22;22448;51.298;6.430;2023-05-16T04:55:24;8.00;99.90
35970;DHT22;22448;51.298;6.430;2023-05-16T04:57:52;8.10;99.90
35970;DHT22;22448;51.298;6.430;2023-05-16T05:00:19;8.20;99.90
35970;DHT22;22448;51.298;6.430;2023-05-16T05:02:46;8.30;99.90
35970;DHT22;22448;51.298;6.430;2023-05-16T05:05:13;8.30;99.90
35970;DHT22;22448;51.298;6.430;2023-05-16T05:07:40;8.40;99.90
35970;DHT22;22448;51.298;6.430;2023-05-16T05:10:08;8.60;99.90
35970;DHT22;22448;51.298;6.430;2023-05-16T05:12:37;8.60;99.90
35970;DHT22;22448;51.298;6.430;2023-05-16T05:15:04;9.30;99.90
35970;DHT22;22448;51.298;6.430;2023-05-16T05:17:32;11.40;99.90
35970;DHT22;22448;51.298;6.430;2023-05-16T05:19:59;13.10;99.90
35970;DHT22;22448;51.298;6.430;2023-05-16T05:22:28;14.50;99.90
35970;DHT22;22448;51.298;6.430;2023-05-16T05:24:56;15.70;99.90
35970;DHT22;22448;51.298;6.430;2023-05-16T05:27:23;16.20;99.90
35970;DHT22;22448;51.298;6.430;2023-05-16T05:29:51;16.60;99.90
35970;DHT22;22448;51.298;6.430;2023-05-16T05:32:18;17.10;99.90
35970;DHT22;22448;51.298;6.430;2023-05-16T05:34:45;17.30;99.90
35970;DHT22;22448;51.298;6.430;2023-05-16T05:37:12;17.70;99.90
35970;DHT22;22448;51.298;6.430;2023-05-16T05:39:39;18.50;99.90
35970;DHT22;22448;51.298;6.430;2023-05-16T05:42:06;18.40;99.30
35970;DHT22;22448;51.298;6.430;2023-05-16T05:44:33;18.50;98.50
35970;DHT22;22448;51.298;6.430;2023-05-16T05:47:00;19.10;98.20
35970;DHT22;22448;51.298;6.430;2023-05-16T05:49:27;19.40;97.30
35970;DHT22;22448;51.298;6.430;2023-05-16T05:51:55;20.00;96.40
35970;DHT22;22448;51.298;6.430;2023-05-16T05:54:22;20.60;95.60
35970;DHT22;22448;51.298;6.430;2023-05-16T05:56:49;20.60;94.20
35970;DHT22;22448;51.298;6.430;2023-05-16T05:59:16;20.70;93.80
35970;DHT22;22448;51.298;6.430;2023-05-16T06:01:43;20.80;94.30
35970;DHT22;22448;51.298;6.430;2023-05-16T06:04:10;20.90;93.30
35970;DHT22;22448;51.298;6.430;2023-05-16T06:06:38;21.00;94.10
35970;DHT22;22448;51.298;6.430;2023-05-16T06:09:05;21.90;93.40
35970;DHT22;22448;51.298;6.430;2023-05-16T06:11:32;22.20;91.90
35970;DHT22;22448;51.298;6.430;2023-05-16T06:13:59;22.50;92.30
35970;DHT22;22448;51.298;6.430;2023-05-16T06:16:26;23.00;90.40
35970;DHT22;22448;51.298;6.430;2023-05-16T06:18:54;22.50;89.60
35970;DHT22;22448;51.298;6.430;2023-05-16T06:21:21;19.00;92.00
35970;DHT22;22448;51.298;6.430;2023-05-16T06:23:48;20.20;92.70
35970;DHT22;22448;51.298;6.430;2023-05-16T06:26:15;21.00;92.10
35970;DHT22;22448;51.298;6.430;2023-05-16T06:28:42;21.30;90.70
35970;DHT22;22448;51.298;6.430;2023-05-16T06:31:09;22.00;91.00
35970;DHT22;22448;51.298;6.430;2023-05-16T06:33:36;22.40;90.20
35970;DHT22;22448;51.298;6.430;2023-05-16T06:36:04;22.60;89.30
35970;DHT22;22448;51.298;6.430;2023-05-16T06:38:31;22.80;89.70
35970;DHT22;22448;51.298;6.430;2023-05-16T06:40:58;22.70;87.40
35970;DHT22;22448;51.298;6.430;2023-05-16T06:43:25;22.30;87.50
35970;DHT22;22448;51.298;6.430;2023-05-16T06:45:52;21.00;90.40
35970;DHT22;22448;51.298;6.430;2023-05-16T06:48:19;21.10;90.80
35970;DHT22;22448;51.298;6.430;2023-05-16T06:50:48;20.70;89.70
35970;DHT22;22448;51.298;6.430;2023-05-16T06:53:15;19.30;90.90
35970;DHT22;22448;51.298;6.430;2023-05-16T06:55:42;18.90;92.20
35970;DHT22;22448;51.298;6.430;2023-05-16T06:58:10;18.20;93.10
35970;DHT22;22448;51.298;6.430;2023-05-16T07:00:38;16.10;95.10
35970;DHT22;22448;51.298;6.430;2023-05-16T07:03:05;14.80;98.90
35970;DHT22;22448;51.298;6.430;2023-05-16T07:05:32;14.50;99.90
35970;DHT22;22448;51.298;6.430;2023-05-16T07:07:59;13.40;99.90
35970;DHT22;22448;51.298;6.430;2023-05-16T07:10:26;12.50;99.90
35970;DHT22;22448;51.298;6.430;2023-05-16T07:12:53;11.90;99.90
35970;DHT22;22448;51.298;6.430;2023-05-16T07:15:21;11.70;99.90
35970;DHT22;22448;51.298;6.430;2023-05-16T07:17:48;11.50;99.90
35970;DHT22;22448;51.298;6.430;2023-05-16T07:20:16;11.20;99.90
35970;DHT22;22448;51.298;6.430;2023-05-16T07:22:43;11.10;99.90
35970;DHT22;22448;51.298;6.430;2023-05-16T07:25:10;11.10;99.90
35970;DHT22;22448;51.298;6.430;2023-05-16T07:27:40;11.80;99.90
35970;DHT22;22448;51.298;6.430;2023-05-16T07:30:11;12.60;99.90
35970;DHT22;22448;51.298;6.430;2023-05-16T07:32:39;12.20;99.90
35970;DHT22;22448;51.298;6.430;2023-05-16T07:35:06;15.20;99.90
35970;DHT22;22448;51.298;6.430;2023-05-16T07:37:36;13.90;99.90
35970;DHT22;22448;51.298;6.430;2023-05-16T07:40:04;13.60;99.90
35970;DHT22;22448;51.298;6.430;2023-05-16T07:42:31;16.30;99.90
35970;DHT22;22448;51.298;6.430;2023-05-16T07:44:58;16.70;99.90
35970;DHT22;22448;51.298;6.430;2023-05-16T07:47:25;15.40;99.90
35970;DHT22;22448;51.298;6.430;2023-05-16T07:49:52;17.90;99.90
35970;DHT22;22448;51.298;6.430;2023-05-16T07:52:19;16.30;99.90
35970;DHT22;22448;51.298;6.430;2023-05-16T07:54:46;16.50;99.90
35970;DHT22;22448;51.298;6.430;2023-05-16T07:57:14;17.30;99.90
35970;DHT22;22448;51.298;6.430;2023-05-16T07:59:42;17.70;99.90
35970;DHT22;22448;51.298;6.430;2023-05-16T08:02:10;16.50;99.90
35970;DHT22;22448;51.298;6.430;2023-05-16T08:04:38;15.50;99.90
35970;DHT22;22448;51.298;6.430;2023-05-16T08:07:05;15.10;99.90
35970;DHT22;22448;51.298;6.430;2023-05-16T08:09:33;14.50;99.90
35970;DHT22;22448;51.298;6.430;2023-05-16T08:12:00;14.20;99.90
35970;DHT22;22448;51.298;6.430;2023-05-16T08:14:32;14.30;99.90
35970;DHT22;22448;51.298;6.430;2023-05-16T08:16:59;14.00;99.90
35970;DHT22;22448;51.298;6.430;2023-05-16T08:19:27;14.00;99.90
35970;DHT22;22448;51.298;6.430;2023-05-16T08:21:55;13.50;99.90
35970;DHT22;22448;51.298;6.430;2023-05-16T08:24:22;13.20;99.90
35970;DHT22;22448;51.298;6.430;2023-05-16T08:26:49;13.00;99.90
35970;DHT22;22448;51.298;6.430;2023-05-16T08:29:16;13.20;99.90
35970;DHT22;22448;51.298;6.430;2023-05-16T08:31:43;13.90;99.90
35970;DHT22;22448;51.298;6.430;2023-05-16T08:34:10;15.10;99.90
35970;DHT22;22448;51.298;6.430;2023-05-16T08:36:37;16.20;99.90
35970;DHT22;22448;51.298;6.430;2023-05-16T08:39:04;16.70;99.90
35970;DHT22;22448;51.298;6.430;2023-05-16T08:41:32;16.80;99.90
35970;DHT22;22448;51.298;6.430;2023-05-16T08:43:58;16.80;99.90
35970;DHT22;22448;51.298;6.430;2023-05-16T08:46:27;16.10;99.90
35970;DHT22;22448;51.298;6.430;2023-05-16T08:48:59;15.60;99.90
35970;DHT22;22448;51.298;6.430;2023-05-16T08:51:27;15.10;99.90
35970;DHT22;22448;51.298;6.430;2023-05-16T08:54:07;14.70;99.90
35970;DHT22;22448;51.298;6.430;2023-05-16T08:56:37;14.40;99.90
35970;DHT22;22448;51.298;6.430;2023-05-16T08:59:05;14.00;99.90
35970;DHT22;22448;51.298;6.430;2023-05-16T09:01:32;13.50;99.90
35970;DHT22;22448;51.298;6.430;2023-05-16T09:04:00;13.50;99.90
35970;DHT22;22448;51.298;6.430;2023-05-16T09:06:27;13.80;99.90
35970;DHT22;22448;51.298;6.430;2023-05-16T09:08:55;13.90;99.90
35970;DHT22;22448;51.298;6.430;2023-05-16T09:11:22;14.30;99.90
35970;DHT22;22448;51.298;6.430;2023-05-16T09:13:49;14.50;99.90
35970;DHT22;22448;51.298;6.430;2023-05-16T09:16:18;14.60;99.90
35970;DHT22;22448;51.298;6.430;2023-05-16T09:18:53;15.10;99.90
35970;DHT22;22448;51.298;6.430;2023-05-16T09:21:28;15.50;99.90
35970;DHT22;22448;51.298;6.430;2023-05-16T09:23:55;15.40;99.90
35970;DHT22;22448;51.298;6.430;2023-05-16T09:26:25;15.50;99.90
35970;DHT22;22448;51.298;6.430;2023-05-16T09:28:53;15.00;99.90
35970;DHT22;22448;51.298;6.430;2023-05-16T09:31:23;15.00;99.90
35970;DHT22;22448;51.298;6.430;2023-05-16T09:33:54;14.90;99.90
35970;DHT22;22448;51.298;6.430;2023-05-16T09:36:22;14.70;99.90
35970;DHT22;22448;51.298;6.430;2023-05-16T09:38:50;14.40;99.90
35970;DHT22;22448;51.298;6.430;2023-05-16T09:41:18;14.50;99.90
35970;DHT22;22448;51.298;6.430;2023-05-16T09:43:47;14.70;99.90
35970;DHT22;22448;51.298;6.430;2023-05-16T09:46:14;14.90;99.90
35970;DHT22;22448;51.298;6.430;2023-05-16T09:48:48;14.90;99.90
35970;DHT22;22448;51.298;6.430;2023-05-16T09:51:21;14.60;99.90
35970;DHT22;22448;51.298;6.430;2023-05-16T09:53:48;14.40;99.90
35970;DHT22;22448;51.298;6.430;2023-05-16T09:56:15;14.30;99.90
35970;DHT22;22448;51.298;6.430;2023-05-16T09:58:44;14.40;99.90
35970;DHT22;22448;51.298;6.430;2023-05-16T10:01:11;14.80;99.90
35970;DHT22;22448;51.298;6.430;2023-05-16T10:03:40;15.10;99.90
35970;DHT22;22448;51.298;6.430;2023-05-16T10:06:08;15.10;99.90
35970;DHT22;22448;51.298;6.430;2023-05-16T10:08:36;14.80;99.90
35970;DHT22;22448;51.298;6.430;2023-05-16T10:11:05;14.50;99.90
35970;DHT22;22448;51.298;6.430;2023-05-16T10:13:34;14.60;99.90
35970;DHT22;22448;51.298;6.430;2023-05-16T10:16:06;15.10;99.90
35970;DHT22;22448;51.298;6.430;2023-05-16T10:18:35;15.60;99.90
35970;DHT22;22448;51.298;6.430;2023-05-16T10:21:05;16.20;99.90
35970;DHT22;22448;51.298;6.430;2023-05-16T10:23:42;16.80;99.60
35970;DHT22;22448;51.298;6.430;2023-05-16T10:26:10;17.00;98.50
35970;DHT22;22448;51.298;6.430;2023-05-16T10:28:41;17.10;99.40
35970;DHT22;22448;51.298;6.430;2023-05-16T10:31:11;17.40;98.90
35970;DHT22;22448;51.298;6.430;2023-05-16T10:33:38;16.80;96.70
35970;DHT22;22448;51.298;6.430;2023-05-16T10:36:09;16.30;97.80
35970;DHT22;22448;51.298;6.430;2023-05-16T10:38:37;15.90;98.60
35970;DHT22;22448;51.298;6.430;2023-05-16T10:41:05;15.60;98.50
35970;DHT22;22448;51.298;6.430;2023-05-16T10:43:33;15.30;98.90
35970;DHT22;22448;51.298;6.430;2023-05-16T10:46:05;15.20;99.20
35970;DHT22;22448;51.298;6.430;2023-05-16T10:48:35;15.10;99.40
35970;DHT22;22448;51.298;6.430;2023-05-16T10:51:04;15.10;99.90
35970;DHT22;22448;51.298;6.430;2023-05-16T10:53:53;15.10;99.90
35970;DHT22;22448;51.298;6.430;2023-05-16T10:56:26;14.80;99.30
35970;DHT22;22448;51.298;6.430;2023-05-16T10:58:54;14.50;99.90
35970;DHT22;22448;51.298;6.430;2023-05-16T11:09:03;13.10;99.90
35970;DHT22;22448;51.298;6.430;2023-05-16T11:19:49;12.50;99.90
35970;DHT22;22448;51.298;6.430;2023-05-16T11:24:58;12.80;99.90
35970;DHT22;22448;51.298;6.430;2023-05-16T11:27:27;13.40;99.90
35970;DHT22;22448;51.298;6.430;2023-05-16T11:32:33;14.60;99.90
35970;DHT22;22448;51.298;6.430;2023-05-16T11:35:02;15.10;99.90
35970;DHT22;22448;51.298;6.430;2023-05-16T11:37:29;15.40;99.90
35970;DHT22;22448;51.298;6.430;2023-05-16T11:40:03;15.60;99.90
35970;DHT22;22448;51.298;6.430;2023-05-16T11:42:51;15.80;99.90
35970;DHT22;22448;51.298;6.430;2023-05-16T11:45:20;16.20;99.90
35970;DHT22;22448;51.298;6.430;2023-05-16T11:48:01;16.60;99.90
35970;DHT22;22448;51.298;6.430;2023-05-16T11:50:29;16.40;99.90
35970;DHT22;22448;51.298;6.430;2023-05-16T11:52:59;15.90;99.90
35970;DHT22;22448;51.298;6.430;2023-05-16T11:55:28;15.40;99.90
35970;DHT22;22448;51.298;6.430;2023-05-16T11:58:08;15.00;99.90
35970;DHT22;22448;51.298;6.430;2023-05-16T12:00:35;14.70;99.90
35970;DHT22;22448;51.298;6.430;2023-05-16T12:03:03;14.80;99.90
35970;DHT22;22448;51.298;6.430;2023-05-16T12:05:32;15.10;99.90
35970;DHT22;22448;51.298;6.430;2023-05-16T12:08:01;15.30;98.90
35970;DHT22;22448;51.298;6.430;2023-05-16T12:10:31;15.50;99.20
35970;DHT22;22448;51.298;6.430;2023-05-16T12:13:01;15.80;99.60
35970;DHT22;22448;51.298;6.430;2023-05-16T12:15:29;16.00;98.70
35970;DHT22;22448;51.298;6.430;2023-05-16T12:17:57;16.30;99.20
35970;DHT22;22448;51.298;6.430;2023-05-16T12:20:24;16.40;95.30
35970;DHT22;22448;51.298;6.430;2023-05-16T12:22:51;16.40;94.50
35970;DHT22;22448;51.298;6.430;2023-05-16T12:28:01;16.40;94.80
35970;DHT22;22448;51.298;6.430;2023-05-16T12:30:31;16.40;94.30
35970;DHT22;22448;51.298;6.430;2023-05-16T12:33:03;16.50;94.60
35970;DHT22;22448;51.298;6.430;2023-05-16T12:35:36;16.40;95.30
35970;DHT22;22448;51.298;6.430;2023-05-16T12:38:08;16.40;95.50
35970;DHT22;22448;51.298;6.430;2023-05-16T12:40:36;16.20;95.20
35970;DHT22;22448;51.298;6.430;2023-05-16T12:43:04;15.70;95.90
35970;DHT22;22448;51.298;6.430;2023-05-16T12:45:32;15.40;95.30
35970;DHT22;22448;51.298;6.430;2023-05-16T12:48:04;15.30;95.80
35970;DHT22;22448;51.298;6.430;2023-05-16T12:50:34;15.60;95.90
35970;DHT22;22448;51.298;6.430;2023-05-16T12:53:01;16.10;95.40
35970;DHT22;22448;51.298;6.430;2023-05-16T12:55:28;16.20;92.90
35970;DHT22;22448;51.298;6.430;2023-05-16T12:57:55;16.30;93.70
35970;DHT22;22448;51.298;6.430;2023-05-16T13:00:23;16.50;96.00
35970;DHT22;22448;51.298;6.430;2023-05-16T13:02:50;16.30;93.60
35970;DHT22;22448;51.298;6.430;2023-05-16T13:05:18;16.10;93.80
35970;DHT22;22448;51.298;6.430;2023-05-16T13:07:46;16.00;94.00
35970;DHT22;22448;51.298;6.430;2023-05-16T13:10:13;16.00;93.80
35970;DHT22;22448;51.298;6.430;2023-05-16T13:12:40;16.20;94.10
35970;DHT22;22448;51.298;6.430;2023-05-16T13:15:09;16.30;94.20
35970;DHT22;22448;51.298;6.430;2023-05-16T13:17:38;16.20;93.60
35970;DHT22;22448;51.298;6.430;2023-05-16T13:20:06;16.10;94.70
35970;DHT22;22448;51.298;6.430;2023-05-16T13:22:43;15.80;94.30
35970;DHT22;22448;51.298;6.430;2023-05-16T13:25:11;15.50;95.00
35970;DHT22;22448;51.298;6.430;2023-05-16T13:27:38;15.40;95.30
35970;DHT22;22448;51.298;6.430;2023-05-16T13:30:05;15.90;95.90
35970;DHT22;22448;51.298;6.430;2023-05-16T13:32:33;16.10;94.90
35970;DHT22;22448;51.298;6.430;2023-05-16T13:35:00;16.00;94.70
35970;DHT22;22448;51.298;6.430;2023-05-16T13:37:27;15.90;95.50
35970;DHT22;22448;51.298;6.430;2023-05-16T13:39:54;15.80;94.40
35970;DHT22;22448;51.298;6.430;2023-05-16T13:42:21;15.40;94.80
35970;DHT22;22448;51.298;6.430;2023-05-16T13:44:48;15.00;95.50
35970;DHT22;22448;51.298;6.430;2023-05-16T13:47:16;14.90;96.40
35970;DHT22;22448;51.298;6.430;2023-05-16T13:49:43;14.70;97.30
35970;DHT22;22448;51.298;6.430;2023-05-16T13:52:10;14.60;97.40
35970;DHT22;22448;51.298;6.430;2023-05-16T13:54:37;14.60;97.10
35970;DHT22;22448;51.298;6.430;2023-05-16T13:57:06;14.70;97.10
35970;DHT22;22448;51.298;6.430;2023-05-16T13:59:33;14.80;97.10
35970;DHT22;22448;51.298;6.430;2023-05-16T14:02:21;14.90;97.10
35970;DHT22;22448;51.298;6.430;2023-05-16T14:04:48;15.00;97.90
35970;DHT22;22448;51.298;6.430;2023-05-16T14:07:15;15.20;97.40
35970;DHT22;22448;51.298;6.430;2023-05-16T14:09:42;15.20;96.40
35970;DHT22;22448;51.298;6.430;2023-05-16T14:12:11;15.20;95.80
35970;DHT22;22448;51.298;6.430;2023-05-16T14:14:38;15.00;96.10
35970;DHT22;22448;51.298;6.430;2023-05-16T14:17:05;15.20;97.10
35970;DHT22;22448;51.298;6.430;2023-05-16T14:19:32;15.40;97.20
35970;DHT22;22448;51.298;6.430;2023-05-16T14:22:00;15.50;97.00
35970;DHT22;22448;51.298;6.430;2023-05-16T14:24:27;15.60;96.90
35970;DHT22;22448;51.298;6.430;2023-05-16T14:26:54;15.50;96.00
35970;DHT22;22448;51.298;6.430;2023-05-16T14:29:21;15.30;95.70
35970;DHT22;22448;51.298;6.430;2023-05-16T14:31:48;15.10;96.10
35970;DHT22;22448;51.298;6.430;2023-05-16T14:34:15;14.80;96.10
35970;DHT22;22448;51.298;6.430;2023-05-16T14:36:43;14.80;96.90
35970;DHT22;22448;51.298;6.430;2023-05-16T14:39:09;14.90;97.00
35970;DHT22;22448;51.298;6.430;2023-05-16T14:41:38;15.00;96.10
35970;DHT22;22448;51.298;6.430;2023-05-16T14:44:05;15.10;96.70
35970;DHT22;22448;51.298;6.430;2023-05-16T14:46:33;15.00;95.50
35970;DHT22;22448;51.298;6.430;2023-05-16T14:49:00;15.00;96.00
35970;DHT22;22448;51.298;6.430;2023-05-16T14:51:27;15.00;96.50
35970;DHT22;22448;51.298;6.430;2023-05-16T14:53:54;15.00;96.00
35970;DHT22;22448;51.298;6.430;2023-05-16T14:56:21;15.00;96.60
35970;DHT22;22448;51.298;6.430;2023-05-16T14:58:48;14.90;97.10
35970;DHT22;22448;51.298;6.430;2023-05-16T15:01:15;14.90;96.50
35970;DHT22;22448;51.298;6.430;2023-05-16T15:03:43;15.10;96.60
35970;DHT22;22448;51.298;6.430;2023-05-16T15:06:21;15.40;96.90
35970;DHT22;22448;51.298;6.430;2023-05-16T15:08:48;15.60;97.00
35970;DHT22;22448;51.298;6.430;2023-05-16T15:11:15;15.70;96.80
35970;DHT22;22448;51.298;6.430;2023-05-16T15:13:42;15.80;97.40
35970;DHT22;22448;51.298;6.430;2023-05-16T15:16:09;15.90;97.30
35970;DHT22;22448;51.298;6.430;2023-05-16T15:18:37;16.00;96.40
35970;DHT22;22448;51.298;6.430;2023-05-16T15:21:04;16.30;97.80
35970;DHT22;22448;51.298;6.430;2023-05-16T15:23:31;16.40;97.50
35970;DHT22;22448;51.298;6.430;2023-05-16T15:25:58;16.10;95.50
35970;DHT22;22448;51.298;6.430;2023-05-16T15:28:25;15.90;96.30
35970;DHT22;22448;51.298;6.430;2023-05-16T15:30:52;15.80;96.60
35970;DHT22;22448;51.298;6.430;2023-05-16T15:33:19;15.70;96.00
35970;DHT22;22448;51.298;6.430;2023-05-16T15:35:46;15.60;96.50
35970;DHT22;22448;51.298;6.430;2023-05-16T15:38:14;15.50;95.80
35970;DHT22;22448;51.298;6.430;2023-05-16T15:40:41;15.30;95.60
35970;DHT22;22448;51.298;6.430;2023-05-16T15:43:08;15.30;96.30
35970;DHT22;22448;51.298;6.430;2023-05-16T15:45:35;15.30;97.50
35970;DHT22;22448;51.298;6.430;2023-05-16T15:48:05;15.20;96.40
35970;DHT22;22448;51.298;6.430;2023-05-16T15:50:32;15.10;96.20
35970;DHT22;22448;51.298;6.430;2023-05-16T15:53:00;14.90;96.70
35970;DHT22;22448;51.298;6.430;2023-05-16T15:55:27;14.90;97.20
35970;DHT22;22448;51.298;6.430;2023-05-16T15:57:55;14.80;97.40
35970;DHT22;22448;51.298;6.430;2023-05-16T16:00:24;14.80;97.60
35970;DHT22;22448;51.298;6.430;2023-05-16T16:02:52;14.70;97.20
35970;DHT22;22448;51.298;6.430;2023-05-16T16:05:19;14.80;97.30
35970;DHT22;22448;51.298;6.430;2023-05-16T16:07:46;14.70;97.40
35970;DHT22;22448;51.298;6.430;2023-05-16T16:10:13;14.70;97.90
35970;DHT22;22448;51.298;6.430;2023-05-16T16:12:40;14.60;97.70
35970;DHT22;22448;51.298;6.430;2023-05-16T16:15:09;14.40;97.70